Time;durP1;ratioP1;P1;durP2;ratioP2;P2;SDS_P1;SDS_P2;PMS_P1;PMS_P2;Temp;Humidity;BMP_temperature;BMP_pressure;BME280_temperature;BME280_humidity;BME280_pressure;Samples;Min_cycle;Max_cycle;Signal;HPM_P1;HPM_P2
2023/03/17 00:01:19;;;;;;;;;;;;;;;19.92;49.13;100084.50;7257074;19;153440;-54
2023/03/17 00:03:48;;;;;;;;;;;;;;;19.90;49.18;100099.97;7252593;19;154399;-55
2023/03/17 00:06:17;;;;;;;;;;;;;;;19.87;48.61;100090.25;7257360;19;152979;-55
2023/03/17 00:08:45;;;;;;;;;;;;;;;19.91;48.83;100099.66;7252660;19;154464;-55
2023/03/17 00:11:15;;;;;;;;;;;;;;;19.90;48.90;100094.38;7254008;19;154689;-54
2023/03/17 00:13:43;;;;;;;;;;;;;;;19.85;48.75;100097.34;7255362;19;154382;-55
2023/03/17 00:16:14;;;;;;;;;;;;;;;19.82;49.25;100103.56;7263730;19;154282;-54
2023/03/17 00:18:42;;;;;;;;;;;;;;;19.80;49.32;100101.13;7255177;19;153786;-54
2023/03/17 00:21:11;;;;;;;;;;;;;;;19.78;49.04;100097.81;7252632;19;153136;-54
2023/03/17 00:23:38;;;;;;;;;;;;;;;19.76;49.09;100094.47;7252803;19;153364;-54
2023/03/17 00:26:05;;;;;;;;;;;;;;;19.75;48.96;100094.81;7255768;19;153307;-54
2023/03/17 00:28:32;;;;;;;;;;;;;;;19.74;49.41;100091.19;7253577;19;153390;-53
2023/03/17 00:31:04;;;;;;;;;;;;;;;19.73;49.15;100088.72;7252201;19;154332;-55
2023/03/17 00:33:36;;;;;;;;;;;;;;;19.71;49.54;100096.63;7255675;19;154594;-54
2023/03/17 00:36:02;;;;;;;;;;;;;;;19.70;49.40;100098.59;7255995;19;153297;-55
2023/03/17 00:38:30;;;;;;;;;;;;;;;19.68;49.37;100092.47;7262713;19;154531;-55
2023/03/17 00:40:56;;;;;;;;;;;;;;;19.67;49.76;100106.84;7254083;19;154296;-55
2023/03/17 00:43:23;;;;;;;;;;;;;;;19.67;49.81;100099.22;7253535;19;152756;-54
2023/03/17 00:45:50;;;;;;;;;;;;;;;19.65;49.67;100101.53;7255258;19;153518;-55
2023/03/17 00:48:18;;;;;;;;;;;;;;;19.64;49.63;100110.25;7255016;19;154967;-54
2023/03/17 00:50:46;;;;;;;;;;;;;;;19.62;49.68;100105.00;7256888;19;153700;-54
2023/03/17 00:53:17;;;;;;;;;;;;;;;19.61;49.95;100103.34;7260261;19;153960;-54
2023/03/17 00:55:44;;;;;;;;;;;;;;;19.62;49.86;100098.56;7257271;19;153993;-54
2023/03/17 00:58:13;;;;;;;;;;;;;;;19.60;49.65;100109.25;7260897;19;154539;-54
2023/03/17 01:00:40;;;;;;;;;;;;;;;19.59;50.14;100113.19;7270562;19;154030;-54
2023/03/17 01:03:10;;;;;;;;;;;;;;;19.58;50.25;100117.19;7259560;19;154324;-54
2023/03/17 01:05:37;;;;;;;;;;;;;;;19.57;49.85;100121.13;7261228;19;153579;-54
2023/03/17 01:08:04;;;;;;;;;;;;;;;19.57;50.04;100118.31;7261396;19;154958;-54
2023/03/17 01:10:31;;;;;;;;;;;;;;;19.56;50.29;100114.69;7260373;19;154198;-54
2023/03/17 01:12:58;;;;;;;;;;;;;;;19.56;49.89;100116.66;7262348;19;153664;-54
2023/03/17 01:15:27;;;;;;;;;;;;;;;19.56;50.37;100127.88;7263154;19;153671;-54
2023/03/17 01:17:56;;;;;;;;;;;;;;;19.55;50.24;100129.84;7260839;19;153826;-54
2023/03/17 01:20:27;;;;;;;;;;;;;;;19.53;50.22;100130.16;7260543;19;154814;-55
2023/03/17 01:22:54;;;;;;;;;;;;;;;19.53;50.21;100140.56;7265829;19;153350;-55
2023/03/17 01:25:21;;;;;;;;;;;;;;;19.52;50.65;100141.69;7261246;19;153836;-55
2023/03/17 01:27:49;;;;;;;;;;;;;;;19.51;50.48;100132.47;7260049;19;152385;-55
2023/03/17 01:30:26;;;;;;;;;;;;;;;19.50;50.60;100130.81;7257119;19;153783;-54
2023/03/17 01:32:54;;;;;;;;;;;;;;;19.49;50.34;100117.94;7262344;19;153348;-55
2023/03/17 01:35:21;;;;;;;;;;;;;;;19.49;50.74;100123.53;7260086;19;154859;-55
2023/03/17 01:37:49;;;;;;;;;;;;;;;19.47;50.90;100111.84;7260014;19;153341;-54
2023/03/17 01:40:21;;;;;;;;;;;;;;;19.47;50.76;100111.00;7256596;19;153193;-55
2023/03/17 01:42:53;;;;;;;;;;;;;;;19.48;50.55;100112.69;7261853;19;153934;-54
2023/03/17 01:45:38;;;;;;;;;;;;;;;19.47;50.66;100111.84;7267764;19;153645;-54
2023/03/17 01:48:05;;;;;;;;;;;;;;;19.46;50.83;100110.19;7258551;19;153613;-54
2023/03/17 01:50:31;;;;;;;;;;;;;;;19.47;51.06;100117.44;7259777;19;153974;-55
2023/03/17 01:52:58;;;;;;;;;;;;;;;19.46;51.00;100124.19;7260593;19;153408;-54
2023/03/17 01:55:25;;;;;;;;;;;;;;;19.47;50.52;100116.63;7259046;19;153402;-54
2023/03/17 01:57:53;;;;;;;;;;;;;;;19.45;50.77;100118.91;7257707;19;153442;-54
2023/03/17 02:00:22;;;;;;;;;;;;;;;19.47;50.82;100113.81;7259217;19;152962;-54
2023/03/17 02:02:51;;;;;;;;;;;;;;;19.45;50.93;100107.69;7260258;19;153866;-55
2023/03/17 02:05:20;;;;;;;;;;;;;;;19.44;51.03;100126.47;7265519;19;153971;-55
2023/03/17 02:07:46;;;;;;;;;;;;;;;19.44;50.69;100125.69;7259470;19;154450;-55
2023/03/17 02:10:14;;;;;;;;;;;;;;;19.43;50.84;100119.25;7256852;19;153421;-53
2023/03/17 02:12:43;;;;;;;;;;;;;;;19.43;50.88;100115.56;7259702;19;153457;-55
2023/03/17 02:15:10;;;;;;;;;;;;;;;19.43;51.17;100116.44;7260649;19;153608;-55
2023/03/17 02:17:37;;;;;;;;;;;;;;;19.42;51.17;100128.75;7259819;19;155285;-55
2023/03/17 02:20:16;;;;;;;;;;;;;;;19.42;51.16;100109.16;7258978;19;153783;-54
2023/03/17 02:22:43;;;;;;;;;;;;;;;19.42;51.23;100100.75;7260441;19;154651;-55
2023/03/17 02:25:12;;;;;;;;;;;;;;;19.41;50.82;100101.06;7250767;19;154104;-54
2023/03/17 02:27:48;;;;;;;;;;;;;;;19.42;51.02;100102.72;7263398;19;154019;-55
2023/03/17 02:30:20;;;;;;;;;;;;;;;19.41;51.26;100098.25;7258544;19;153901;-55
2023/03/17 02:32:47;;;;;;;;;;;;;;;19.43;51.09;100098.78;7257742;19;154715;-55
2023/03/17 02:35:14;;;;;;;;;;;;;;;19.42;51.21;100106.34;7258008;19;153517;-55
2023/03/17 02:37:42;;;;;;;;;;;;;;;19.41;51.17;100110.28;7260298;19;153676;-54
2023/03/17 02:40:10;;;;;;;;;;;;;;;19.39;51.45;100106.16;7259743;19;152689;-55
2023/03/17 02:42:38;;;;;;;;;;;;;;;19.38;51.13;100104.50;7260229;19;153941;-55
2023/03/17 02:45:05;;;;;;;;;;;;;;;19.39;51.14;100106.16;7257218;19;153938;-55
2023/03/17 02:47:32;;;;;;;;;;;;;;;19.38;51.29;100107.31;7258680;19;152440;-56
2023/03/17 02:49:59;;;;;;;;;;;;;;;19.36;51.44;100113.22;7261862;19;153452;-54
2023/03/17 02:52:26;;;;;;;;;;;;;;;19.36;51.24;100109.59;7249881;19;153603;-55
2023/03/17 02:54:53;;;;;;;;;;;;;;;19.35;51.56;100108.75;7254028;19;154269;-55
2023/03/17 02:57:20;;;;;;;;;;;;;;;19.34;51.46;100103.50;7256708;19;152776;-54
2023/03/17 02:59:47;;;;;;;;;;;;;;;19.35;51.23;100102.34;7257917;19;152883;-55
2023/03/17 03:02:13;;;;;;;;;;;;;;;19.33;51.61;100108.28;7256733;19;152929;-54
2023/03/17 03:04:40;;;;;;;;;;;;;;;19.33;51.33;100104.63;7256948;19;156377;-54
2023/03/17 03:07:07;;;;;;;;;;;;;;;19.33;51.40;100107.44;7256485;19;153208;-54
2023/03/17 03:09:35;;;;;;;;;;;;;;;19.33;51.54;100110.25;7255137;19;153530;-54
2023/03/17 03:12:02;;;;;;;;;;;;;;;19.31;51.37;100101.31;7264585;19;154413;-54
2023/03/17 03:14:29;;;;;;;;;;;;;;;19.29;51.76;100096.06;7256546;19;153957;-54
2023/03/17 03:16:56;;;;;;;;;;;;;;;19.31;51.52;100081.72;7255581;19;153618;-54
2023/03/17 03:19:23;;;;;;;;;;;;;;;19.29;51.50;100081.22;7258301;19;154003;-54
2023/03/17 03:21:49;;;;;;;;;;;;;;;19.29;51.37;100086.81;7256313;19;154617;-54
2023/03/17 03:24:16;;;;;;;;;;;;;;;19.29;51.71;100084.03;7256830;19;153661;-53
2023/03/17 03:26:43;;;;;;;;;;;;;;;19.29;51.44;100084.84;7259389;19;154217;-53
2023/03/17 03:29:09;;;;;;;;;;;;;;;19.28;51.50;100085.16;7255826;19;153656;-54
2023/03/17 03:31:36;;;;;;;;;;;;;;;19.28;51.85;100080.41;7256836;19;156680;-53
2023/03/17 03:34:03;;;;;;;;;;;;;;;19.28;51.76;100073.97;7264305;19;153938;-54
2023/03/17 03:36:29;;;;;;;;;;;;;;;19.28;51.82;100074.78;7254109;19;155314;-53
2023/03/17 03:38:57;;;;;;;;;;;;;;;19.26;51.52;100079.88;7254223;19;153299;-54
2023/03/17 03:41:23;;;;;;;;;;;;;;;19.27;51.90;100072.31;7256091;19;153692;-55
2023/03/17 03:43:51;;;;;;;;;;;;;;;19.27;51.53;100072.31;7255304;19;153117;-54
2023/03/17 03:46:17;;;;;;;;;;;;;;;19.26;51.62;100067.88;7257697;19;153844;-54
2023/03/17 03:48:44;;;;;;;;;;;;;;;19.29;51.57;100070.03;7254491;19;154272;-53
2023/03/17 03:51:11;;;;;;;;;;;;;;;19.28;51.58;100073.97;7259583;19;153590;-53
2023/03/17 03:53:37;;;;;;;;;;;;;;;19.27;51.68;100075.09;7256096;19;153977;-54
2023/03/17 03:56:04;;;;;;;;;;;;;;;19.27;51.64;100075.09;7261715;19;154391;-53
2023/03/17 03:58:31;;;;;;;;;;;;;;;19.29;51.56;100072.81;7254877;19;153365;-54
2023/03/17 04:00:58;;;;;;;;;;;;;;;19.27;52.08;100077.91;7258202;19;154315;-54
2023/03/17 04:03:24;;;;;;;;;;;;;;;19.28;51.89;100079.56;7255157;19;153897;-54
2023/03/17 04:05:51;;;;;;;;;;;;;;;19.26;51.60;100088.28;7254495;19;153073;-55
2023/03/17 04:08:18;;;;;;;;;;;;;;;19.26;51.67;100081.88;7253376;19;154219;-53
2023/03/17 04:10:45;;;;;;;;;;;;;;;19.27;51.84;100077.91;7253278;19;154415;-54
2023/03/17 04:13:12;;;;;;;;;;;;;;;19.26;52.17;100074.28;7256633;19;151859;-54
2023/03/17 04:15:49;;;;;;;;;;;;;;;19.26;52.06;100059.47;7262025;19;152890;-54
2023/03/17 04:18:15;;;;;;;;;;;;;;;19.26;51.83;100070.69;7257100;19;153494;-54
2023/03/17 04:20:42;;;;;;;;;;;;;;;19.26;51.88;100065.06;7257550;19;152893;-55
2023/03/17 04:23:09;;;;;;;;;;;;;;;19.26;52.23;100071.47;7255026;19;155171;-54
2023/03/17 04:25:36;;;;;;;;;;;;;;;19.25;51.93;100069.84;7255598;19;153633;-54
2023/03/17 04:28:03;;;;;;;;;;;;;;;19.25;52.27;100064.25;7260658;19;153657;-54
2023/03/17 04:30:31;;;;;;;;;;;;;;;19.24;52.13;100061.75;7260059;19;153101;-54
2023/03/17 04:32:58;;;;;;;;;;;;;;;19.24;52.04;100061.75;7262490;19;153218;-54
2023/03/17 04:35:26;;;;;;;;;;;;;;;19.22;51.93;100064.03;7263406;19;153013;-54
2023/03/17 04:37:53;;;;;;;;;;;;;;;19.22;52.08;100064.03;7270259;19;154114;-54
2023/03/17 04:40:20;;;;;;;;;;;;;;;19.22;52.34;100075.25;7261068;19;153871;-53
2023/03/17 04:42:47;;;;;;;;;;;;;;;19.21;52.06;100073.63;7262092;19;155853;-54
2023/03/17 04:45:14;;;;;;;;;;;;;;;19.21;52.10;100073.63;7262562;19;152390;-56
2023/03/17 04:47:41;;;;;;;;;;;;;;;19.20;52.08;100078.38;7262164;19;154315;-53
2023/03/17 04:50:09;;;;;;;;;;;;;;;19.20;52.50;100067.19;7260960;19;154155;-53
2023/03/17 04:52:36;;;;;;;;;;;;;;;19.20;52.26;100063.56;7262901;19;153931;-53
2023/03/17 04:55:03;;;;;;;;;;;;;;;19.21;52.00;100073.63;7259467;19;153888;-53
2023/03/17 04:57:30;;;;;;;;;;;;;;;19.18;52.39;100069.47;7259180;19;153700;-54
2023/03/17 04:59:57;;;;;;;;;;;;;;;19.19;52.18;100065.53;7270545;19;153244;-54
2023/03/17 05:02:25;;;;;;;;;;;;;;;19.23;52.21;100065.69;7260471;19;155328;-54
2023/03/17 05:04:52;;;;;;;;;;;;;;;19.24;52.44;100067.34;7259303;19;153797;-53
2023/03/17 05:07:18;;;;;;;;;;;;;;;19.24;52.27;100073.78;7260546;19;153357;-54
2023/03/17 05:09:46;;;;;;;;;;;;;;;19.26;51.95;100076.28;7256909;19;154270;-55
2023/03/17 05:12:13;;;;;;;;;;;;;;;19.25;52.01;100078.25;7259936;19;152426;-54
2023/03/17 05:14:40;;;;;;;;;;;;;;;19.23;52.02;100082.50;7262566;19;153146;-54
2023/03/17 05:17:07;;;;;;;;;;;;;;;19.21;52.27;100098.81;7260458;19;155227;-54
2023/03/17 05:19:34;;;;;;;;;;;;;;;19.20;52.38;100097.16;7263618;19;154257;-54
2023/03/17 05:22:00;;;;;;;;;;;;;;;19.19;52.08;100099.13;7269667;19;153880;-54
2023/03/17 05:24:27;;;;;;;;;;;;;;;19.17;52.36;100095.81;7261557;19;153743;-54
2023/03/17 05:26:54;;;;;;;;;;;;;;;19.15;52.42;100095.31;7262955;19;153305;-54
2023/03/17 05:29:21;;;;;;;;;;;;;;;19.15;52.47;100100.91;7261605;19;153432;-54
2023/03/17 05:31:47;;;;;;;;;;;;;;;19.14;52.51;100096.44;7263275;19;153713;-54
2023/03/17 05:34:14;;;;;;;;;;;;;;;19.14;52.25;100104.03;7263392;19;153283;-54
2023/03/17 05:36:42;;;;;;;;;;;;;;;19.14;52.52;100101.22;7258869;19;155189;-54
2023/03/17 05:39:09;;;;;;;;;;;;;;;19.13;52.31;100097.59;7258584;19;153795;-55
2023/03/17 05:41:38;;;;;;;;;;;;;;;19.13;52.56;100097.59;7261739;19;154436;-55
2023/03/17 05:44:05;;;;;;;;;;;;;;;19.12;52.65;100086.72;7266794;19;154277;-54
2023/03/17 05:46:32;;;;;;;;;;;;;;;19.12;52.68;100089.53;7258986;19;154483;-53
2023/03/17 05:48:58;;;;;;;;;;;;;;;19.13;52.87;100092.00;7257558;19;153540;-54
2023/03/17 05:51:26;;;;;;;;;;;;;;;19.12;52.65;100089.53;7258817;19;153085;-55
2023/03/17 05:53:53;;;;;;;;;;;;;;;19.13;52.41;100085.56;7257958;19;153650;-55
2023/03/17 05:56:20;;;;;;;;;;;;;;;19.12;52.34;100093.16;7257208;19;153978;-55
2023/03/17 05:58:47;;;;;;;;;;;;;;;19.10;52.62;100096.28;7259328;19;153307;-53
2023/03/17 06:01:14;;;;;;;;;;;;;;;19.10;52.70;100101.88;7261681;19;154465;-54
2023/03/17 06:03:41;;;;;;;;;;;;;;;19.14;52.62;100095.63;7257749;19;155126;-54
2023/03/17 06:06:08;;;;;;;;;;;;;;;19.21;52.59;100096.84;7267575;19;154499;-53
2023/03/17 06:08:34;;;;;;;;;;;;;;;19.27;52.87;100101.16;7256615;19;153766;-53
2023/03/17 06:11:01;;;;;;;;;;;;;;;19.32;52.57;100098.22;7256588;19;153626;-54
2023/03/17 06:13:28;;;;;;;;;;;;;;;19.37;53.09;100111.25;7259942;19;153816;-54
2023/03/17 06:15:56;;;;;;;;;;;;;;;19.42;52.98;100111.13;7259419;19;152731;-54
2023/03/17 06:18:23;;;;;;;;;;;;;;;19.44;53.31;100097.66;7259545;19;153449;-55
2023/03/17 06:20:49;;;;;;;;;;;;;;;19.49;52.89;100106.72;7258338;19;153833;-54
2023/03/17 06:23:17;;;;;;;;;;;;;;;19.54;53.18;100103.78;7254261;19;153796;-54
2023/03/17 06:25:53;;;;;;;;;;;;;;;19.60;53.72;100101.69;7267389;19;154903;-55
2023/03/17 06:28:19;;;;;;;;;;;;;;;19.65;54.03;100084.72;7252119;19;152993;-54
2023/03/17 06:30:46;;;;;;;;;;;;;;;19.71;53.65;100091.03;7258725;19;154686;-54
2023/03/17 06:33:20;;;;;;;;;;;;;;;19.78;53.70;100088.56;7259257;19;153491;-54
2023/03/17 06:35:47;;;;;;;;;;;;;;;19.84;53.45;100095.69;7256277;19;153465;-55
2023/03/17 06:38:14;;;;;;;;;;;;;;;19.90;53.56;100103.59;7259182;19;153529;-54
2023/03/17 06:40:41;;;;;;;;;;;;;;;19.96;53.62;100105.13;7260558;19;152824;-54
2023/03/17 06:43:08;;;;;;;;;;;;;;;20.02;53.29;100104.97;7258345;19;153420;-54
2023/03/17 06:45:34;;;;;;;;;;;;;;;20.09;52.97;100097.72;7260164;19;153272;-54
2023/03/17 06:48:01;;;;;;;;;;;;;;;20.15;52.90;100096.44;7264632;19;153434;-54
2023/03/17 06:50:28;;;;;;;;;;;;;;;20.21;52.90;100089.53;7254415;19;154428;-53
2023/03/17 06:52:55;;;;;;;;;;;;;;;20.27;52.58;100090.16;7260336;19;153480;-55
2023/03/17 06:55:22;;;;;;;;;;;;;;;20.33;52.32;100092.53;7254967;19;153606;-54
2023/03/17 06:57:48;;;;;;;;;;;;;;;20.39;52.26;100094.03;7260646;19;153214;-54
2023/03/17 07:00:17;;;;;;;;;;;;;;;20.43;52.30;100091.41;7258314;19;154676;-53
2023/03/17 07:02:51;;;;;;;;;;;;;;;20.49;51.97;100090.06;7257355;19;153819;-54
2023/03/17 07:05:32;;;;;;;;;;;;;;;20.53;51.79;100109.91;7254409;19;154851;-54
2023/03/17 07:08:05;;;;;;;;;;;;;;;20.58;51.60;100101.31;7257820;19;152991;-54
2023/03/17 07:10:36;;;;;;;;;;;;;;;20.63;51.43;100099.16;7261523;19;156153;-54
2023/03/17 07:13:04;;;;;;;;;;;;;;;20.66;51.53;100100.50;7257423;19;153408;-53
2023/03/17 07:15:33;;;;;;;;;;;;;;;20.70;51.24;100099.50;7255407;19;153315;-55
2023/03/17 07:18:01;;;;;;;;;;;;;;;20.73;51.08;100086.78;7259051;19;153819;-54
2023/03/17 07:20:27;;;;;;;;;;;;;;;20.77;51.16;100079.34;7257254;19;154366;-54
2023/03/17 07:22:54;;;;;;;;;;;;;;;20.82;50.62;100080.00;7257025;19;153969;-54
2023/03/17 07:25:21;;;;;;;;;;;;;;;20.87;50.14;100084.63;7254561;19;152573;-55
2023/03/17 07:27:48;;;;;;;;;;;;;;;20.89;49.81;100093.53;7258957;19;154353;-54
2023/03/17 07:30:17;;;;;;;;;;;;;;;20.90;49.39;100111.19;7252153;19;155525;-55
2023/03/17 07:32:45;;;;;;;;;;;;;;;20.88;49.29;100100.31;7264636;19;153358;-54
2023/03/17 07:35:14;;;;;;;;;;;;;;;20.92;49.08;100111.69;7254761;19;153654;-55
2023/03/17 07:37:41;;;;;;;;;;;;;;;20.94;48.84;100107.38;7257940;19;152125;-55
2023/03/17 07:40:09;;;;;;;;;;;;;;;20.92;48.61;100111.69;7255795;19;153753;-55
2023/03/17 07:42:35;;;;;;;;;;;;;;;20.84;48.42;100117.00;7254969;19;154320;-55
2023/03/17 07:45:04;;;;;;;;;;;;;;;20.75;48.64;100121.78;7257159;19;153537;-55
2023/03/17 07:47:31;;;;;;;;;;;;;;;20.75;48.62;100110.56;7257060;19;153884;-55
2023/03/17 07:49:58;;;;;;;;;;;;;;;20.80;48.31;100110.38;7252963;19;154761;-54
2023/03/17 07:52:24;;;;;;;;;;;;;;;20.82;48.24;100113.69;7255104;19;152392;-55
2023/03/17 07:54:52;;;;;;;;;;;;;;;20.84;48.30;100116.19;7259367;19;153764;-54
2023/03/17 07:57:22;;;;;;;;;;;;;;;20.83;48.36;100104.13;7255551;19;152824;-54
2023/03/17 07:59:49;;;;;;;;;;;;;;;20.82;48.33;100116.50;7256145;19;153439;-55
2023/03/17 08:02:16;;;;;;;;;;;;;;;20.82;48.16;100119.31;7259231;19;153504;-55
2023/03/17 08:04:44;;;;;;;;;;;;;;;20.80;48.32;100138.44;7262545;19;153788;-54
2023/03/17 08:07:11;;;;;;;;;;;;;;;20.80;48.04;100148.88;7260310;19;153382;-54
2023/03/17 08:09:39;;;;;;;;;;;;;;;20.80;47.99;100155.28;7260168;19;154089;-55
2023/03/17 08:12:05;;;;;;;;;;;;;;;20.79;47.96;100161.25;7262715;19;153838;-55
2023/03/17 08:14:32;;;;;;;;;;;;;;;20.78;47.90;100157.63;7263654;19;153647;-54
2023/03/17 08:16:59;;;;;;;;;;;;;;;20.76;47.89;100161.91;7269708;19;153628;-56
2023/03/17 08:19:26;;;;;;;;;;;;;;;20.74;48.32;100159.44;7262468;19;153347;-55
2023/03/17 08:21:52;;;;;;;;;;;;;;;20.82;48.89;100158.59;7262576;19;153208;-58
2023/03/17 08:24:19;;;;;;;;;;;;;;;20.85;49.10;100157.94;7261387;19;154296;-55
2023/03/17 08:26:48;;;;;;;;;;;;;;;20.85;48.71;100155.13;7262430;19;154142;-55
2023/03/17 08:29:14;;;;;;;;;;;;;;;20.85;48.63;100155.13;7261389;19;152805;-55
2023/03/17 08:31:41;;;;;;;;;;;;;;;20.81;48.20;100150.50;7261642;19;153265;-55
2023/03/17 08:34:11;;;;;;;;;;;;;;;20.78;48.16;100153.97;7262961;19;153120;-55
2023/03/17 08:36:38;;;;;;;;;;;;;;;20.74;48.36;100159.44;7270035;19;155730;-55
2023/03/17 08:39:05;;;;;;;;;;;;;;;20.72;48.60;100155.28;7260524;19;155611;-55
2023/03/17 08:41:32;;;;;;;;;;;;;;;20.70;48.64;100154.81;7263532;19;155232;-54
2023/03/17 08:43:58;;;;;;;;;;;;;;;20.69;48.46;100155.97;7262596;19;153894;-54
2023/03/17 08:46:27;;;;;;;;;;;;;;;20.67;48.47;100164.69;7263922;19;153995;-54
2023/03/17 08:48:55;;;;;;;;;;;;;;;20.67;48.05;100155.47;7261856;19;154073;-54
2023/03/17 08:51:23;;;;;;;;;;;;;;;20.64;48.30;100150.50;7261905;19;154257;-55
2023/03/17 08:53:50;;;;;;;;;;;;;;;20.63;47.99;100152.47;7263038;19;154500;-54
2023/03/17 08:56:17;;;;;;;;;;;;;;;20.62;48.06;100153.66;7260937;19;154338;-55
2023/03/17 08:58:44;;;;;;;;;;;;;;;20.60;48.30;100150.34;7271769;19;153898;-54
2023/03/17 09:01:11;;;;;;;;;;;;;;;20.57;48.16;100142.59;7263228;19;153945;-55
2023/03/17 09:03:39;;;;;;;;;;;;;;;20.56;48.36;100137.28;7269243;19;152252;-55
2023/03/17 09:06:08;;;;;;;;;;;;;;;20.54;48.52;100143.22;7267171;19;152725;-54
2023/03/17 09:08:38;;;;;;;;;;;;;;;20.54;48.28;100157.25;7266562;19;152649;-55
2023/03/17 09:11:06;;;;;;;;;;;;;;;20.56;48.28;100159.75;7261940;19;153567;-55
2023/03/17 09:13:34;;;;;;;;;;;;;;;20.59;48.54;100164.69;7259387;19;153129;-55
2023/03/17 09:16:01;;;;;;;;;;;;;;;20.62;48.14;100164.88;7261905;19;155789;-54
2023/03/17 09:18:30;;;;;;;;;;;;;;;20.65;48.04;100158.59;7260791;19;152951;-55
2023/03/17 09:20:56;;;;;;;;;;;;;;;20.71;48.43;100162.09;7267705;19;153412;-56
2023/03/17 09:23:27;;;;;;;;;;;;;;;20.74;48.14;100165.06;7261087;19;154422;-56
2023/03/17 09:26:25;;;;;;;;;;;;;;;20.80;47.83;100169.31;7252676;19;153640;-55
2023/03/17 09:29:06;;;;;;;;;;;;;;;20.87;47.64;100168.84;7254612;19;153524;-55
2023/03/17 09:31:35;;;;;;;;;;;;;;;20.92;47.68;100173.47;7259955;19;152633;-55
2023/03/17 09:34:03;;;;;;;;;;;;;;;20.95;47.75;100178.44;7261849;19;153755;-54
2023/03/17 09:36:32;;;;;;;;;;;;;;;20.98;47.94;100169.34;7257704;19;153452;-55
2023/03/17 09:38:59;;;;;;;;;;;;;;;20.99;47.63;100159.75;7258896;19;152606;-55
2023/03/17 09:41:43;;;;;;;;;;;;;;;21.02;47.29;100156.31;7262038;19;152599;-54
2023/03/17 09:44:17;;;;;;;;;;;;;;;21.03;47.40;100155.16;7269665;19;154173;-55
2023/03/17 09:46:52;;;;;;;;;;;;;;;21.04;47.67;100143.56;7267142;19;154035;-54
2023/03/17 09:49:24;;;;;;;;;;;;;;;21.07;47.61;100142.94;7263196;19;155224;-54
2023/03/17 09:51:52;;;;;;;;;;;;;;;21.07;47.76;100142.94;7265528;19;153224;-53
2023/03/17 09:54:21;;;;;;;;;;;;;;;21.10;47.50;100150.69;7256845;19;153661;-54
2023/03/17 09:56:53;;;;;;;;;;;;;;;21.12;47.95;100147.56;7257354;19;152775;-55
2023/03/17 09:59:32;;;;;;;;;;;;;;;21.12;47.93;100150.34;7261223;19;153610;-54
2023/03/17 10:01:58;;;;;;;;;;;;;;;21.15;47.60;100155.34;7258802;19;152434;-54
2023/03/17 10:04:26;;;;;;;;;;;;;;;21.17;47.28;100155.81;7261339;19;154032;-52
2023/03/17 10:07:02;;;;;;;;;;;;;;;21.18;47.30;100165.91;7266453;19;154079;-53
2023/03/17 10:09:42;;;;;;;;;;;;;;;21.17;47.17;100156.63;7256883;19;154396;-53
2023/03/17 10:12:16;;;;;;;;;;;;;;;21.17;47.35;100162.25;7255719;19;154064;-52
2023/03/17 10:14:43;;;;;;;;;;;;;;;21.18;47.23;100160.28;7263917;19;153380;-52
2023/03/17 10:17:16;;;;;;;;;;;;;;;21.16;47.30;100171.88;7258988;19;153689;-53
2023/03/17 10:19:46;;;;;;;;;;;;;;;21.16;47.53;100163.44;7265320;19;152869;-53
2023/03/17 10:22:16;;;;;;;;;;;;;;;21.16;47.33;100171.03;7263272;19;153498;-53
2023/03/17 10:24:45;;;;;;;;;;;;;;;21.14;47.29;100165.75;7258891;19;154123;-52
2023/03/17 10:27:14;;;;;;;;;;;;;;;21.12;47.27;100167.22;7268534;19;152816;-53
2023/03/17 10:29:41;;;;;;;;;;;;;;;21.10;47.35;100164.72;7261838;19;154344;-53
2023/03/17 10:32:12;;;;;;;;;;;;;;;21.08;47.20;100157.78;7258114;19;152341;-53
2023/03/17 10:34:40;;;;;;;;;;;;;;;21.08;47.19;100167.03;7264792;19;154460;-53
2023/03/17 10:37:17;;;;;;;;;;;;;;;21.06;47.68;100168.53;7260598;19;153625;-53
2023/03/17 10:39:49;;;;;;;;;;;;;;;21.03;47.70;100170.00;7259044;19;153862;-53
2023/03/17 10:42:23;;;;;;;;;;;;;;;21.01;47.77;100169.53;7262684;19;153472;-53
2023/03/17 10:44:55;;;;;;;;;;;;;;;21.00;47.62;100179.09;7261077;19;154078;-53
2023/03/17 10:47:39;;;;;;;;;;;;;;;20.97;47.76;100176.13;7259052;19;153907;-53
2023/03/17 10:50:15;;;;;;;;;;;;;;;20.94;47.64;100177.59;7266609;19;152843;-53
2023/03/17 10:52:45;;;;;;;;;;;;;;;20.93;47.64;100172.34;7258493;19;153079;-53
2023/03/17 10:55:19;;;;;;;;;;;;;;;20.91;47.79;100171.81;7260578;19;153697;-54
2023/03/17 10:57:49;;;;;;;;;;;;;;;20.88;47.96;100173.31;7258648;19;153985;-53
2023/03/17 11:00:21;;;;;;;;;;;;;;;20.88;47.76;100178.94;7258566;19;153054;-53
2023/03/17 11:02:56;;;;;;;;;;;;;;;20.86;48.26;100175.63;7272851;19;153830;-53
2023/03/17 11:05:25;;;;;;;;;;;;;;;20.85;47.95;100166.38;7267537;19;153482;-54
2023/03/17 11:08:06;;;;;;;;;;;;;;;20.83;48.13;100177.13;7261467;19;154309;-54
2023/03/17 11:10:35;;;;;;;;;;;;;;;20.83;48.07;100176.28;7258688;19;153412;-54
2023/03/17 11:13:02;;;;;;;;;;;;;;;20.82;47.94;100174.63;7267420;19;152892;-54
2023/03/17 11:15:34;;;;;;;;;;;;;;;20.80;47.99;100172.13;7261030;19;152883;-53
2023/03/17 11:18:11;;;;;;;;;;;;;;;20.80;48.10;100171.34;7259011;19;154048;-53
2023/03/17 11:20:50;;;;;;;;;;;;;;;20.78;47.82;100168.03;7261338;19;153098;-53
2023/03/17 11:23:25;;;;;;;;;;;;;;;20.76;48.12;100165.53;7260102;19;153568;-54
2023/03/17 11:26:16;;;;;;;;;;;;;;;20.74;48.38;100176.28;7257612;19;153546;-53
2023/03/17 11:28:46;;;;;;;;;;;;;;;20.74;48.10;100176.28;7257556;19;153226;-53
2023/03/17 11:31:22;;;;;;;;;;;;;;;20.71;48.31;100170.50;7257578;19;153467;-53
2023/03/17 11:34:07;;;;;;;;;;;;;;;20.70;48.29;100163.22;7255197;19;153760;-54
2023/03/17 11:36:49;;;;;;;;;;;;;;;20.68;48.63;100166.34;7264856;19;153282;-53
2023/03/17 11:39:19;;;;;;;;;;;;;;;20.68;48.25;100169.16;7252442;19;152952;-54
2023/03/17 11:41:55;;;;;;;;;;;;;;;20.67;48.53;100175.94;7260224;19;153780;-53
2023/03/17 11:44:37;;;;;;;;;;;;;;;20.68;48.73;100157.94;7258660;19;153258;-54
2023/03/17 11:47:22;;;;;;;;;;;;;;;20.70;48.90;100155.63;7256120;19;154085;-53
2023/03/17 11:50:02;;;;;;;;;;;;;;;20.73;48.81;100160.59;7260334;19;152878;-53
2023/03/17 11:52:37;;;;;;;;;;;;;;;20.77;48.55;100161.56;7256967;19;154237;-54
2023/03/17 11:55:04;;;;;;;;;;;;;;;20.82;48.45;100164.22;7257060;19;154073;-53
2023/03/17 11:57:31;;;;;;;;;;;;;;;20.88;48.81;100176.13;7257129;19;153699;-54
2023/03/17 12:00:04;;;;;;;;;;;;;;;20.94;48.65;100183.22;7264725;19;153247;-53
2023/03/17 12:02:35;;;;;;;;;;;;;;;21.00;48.29;100179.09;7256196;19;152072;-54
2023/03/17 12:05:11;;;;;;;;;;;;;;;21.06;48.16;100174.16;7257672;19;153240;-52
2023/03/17 12:07:43;;;;;;;;;;;;;;;21.12;48.06;100170.03;7255461;19;153772;-53
2023/03/17 12:10:12;;;;;;;;;;;;;;;21.17;48.12;100169.84;7255364;19;152810;-54
2023/03/17 12:12:43;;;;;;;;;;;;;;;21.21;47.92;100171.66;7252978;19;153662;-53
2023/03/17 12:15:19;;;;;;;;;;;;;;;21.27;47.80;100173.16;7256942;19;153141;-54
2023/03/17 12:18:03;;;;;;;;;;;;;;;21.31;48.18;100181.75;7260294;19;153640;-55
2023/03/17 12:20:36;;;;;;;;;;;;;;;21.36;47.96;100177.94;7257300;19;153746;-53
2023/03/17 12:23:28;;;;;;;;;;;;;;;21.40;48.16;100182.56;7262994;19;153901;-53
2023/03/17 12:25:58;;;;;;;;;;;;;;;21.44;48.11;100189.16;7254033;19;153774;-53
2023/03/17 12:28:29;;;;;;;;;;;;;;;21.48;47.76;100180.91;7256353;19;153402;-52
2023/03/17 12:31:04;;;;;;;;;;;;;;;21.52;48.05;100173.47;7258468;19;154546;-53
2023/03/17 12:33:43;;;;;;;;;;;;;;;21.55;47.95;100164.34;7257576;19;153424;-52
2023/03/17 12:36:16;;;;;;;;;;;;;;;21.59;47.94;100157.72;7255549;19;153485;-53
2023/03/17 12:38:50;;;;;;;;;;;;;;;21.62;47.53;100159.84;7253636;19;153902;-53